Time;durP1;ratioP1;P1;durP2;ratioP2;P2;SDS_P1;SDS_P2;PMS_P1;PMS_P2;Temp;Humidity;BMP_temperature;BMP_pressure;BME280_temperature;BME280_humidity;BME280_pressure;Samples;Min_cycle;Max_cycle;Signal;HPM_P1;HPM_P2
2022/12/28 00:00:11;;;;;;;3.83;3.20;;;;;;;3.93;87.64;99544.16;4991434;28;103196;-63
2022/12/28 00:02:39;;;;;;;4.90;3.07;;;;;;;3.97;88.78;99533.53;4993129;28;102738;-63
2022/12/28 00:05:09;;;;;;;3.80;2.67;;;;;;;3.96;88.99;99526.56;4990339;28;104069;-63
2022/12/28 00:07:38;;;;;;;3.93;3.00;;;;;;;4.05;88.13;99526.28;4995334;28;103771;-63
2022/12/28 00:10:06;;;;;;;3.73;2.70;;;;;;;4.13;87.85;99512.13;4995755;28;103385;-63
2022/12/28 00:12:34;;;;;;;3.60;3.30;;;;;;;4.15;87.78;99526.00;4992890;28;102669;-62
2022/12/28 00:15:02;;;;;;;4.77;3.23;;;;;;;4.14;87.08;99516.41;4994469;28;103878;-62
2022/12/28 00:17:30;;;;;;;4.33;3.33;;;;;;;4.01;87.39;99516.81;4992998;28;103177;-63
2022/12/28 00:19:59;;;;;;;6.70;3.77;;;;;;;3.66;89.67;99511.88;4992289;28;103200;-62
2022/12/28 00:22:28;;;;;;;3.63;2.63;;;;;;;3.70;89.80;99508.28;4989413;28;102817;-63
2022/12/28 00:24:56;;;;;;;3.03;2.50;;;;;;;3.63;90.84;99506.75;4991200;28;102827;-62
2022/12/28 00:27:24;;;;;;;17.97;3.30;;;;;;;3.77;89.42;99501.09;4995797;28;104516;-62
2022/12/28 00:29:52;;;;;;;4.87;3.43;;;;;;;3.72;89.61;99497.75;4990625;28;103152;-62
2022/12/28 00:32:21;;;;;;;3.83;3.40;;;;;;;3.41;91.51;99500.50;4989069;28;102593;-62
2022/12/28 00:34:48;;;;;;;3.93;3.10;;;;;;;3.57;90.65;99501.72;4994260;28;102675;-62
2022/12/28 00:37:16;;;;;;;3.27;2.63;;;;;;;3.71;90.47;99493.44;4997478;28;104036;-64
2022/12/28 00:39:46;;;;;;;3.17;2.20;;;;;;;3.82;90.23;99497.41;4987174;28;103203;-63
2022/12/28 00:42:15;;;;;;;3.47;2.77;;;;;;;3.84;89.52;99498.25;4992139;28;102700;-63
2022/12/28 00:44:43;;;;;;;2.40;2.20;;;;;;;4.03;88.00;99491.50;4991224;28;103047;-62
2022/12/28 00:47:11;;;;;;;2.77;2.43;;;;;;;4.10;87.70;99494.72;4990291;28;103980;-61
2022/12/28 00:49:39;;;;;;;3.77;2.40;;;;;;;4.13;88.02;99493.81;4995786;28;102923;-62
2022/12/28 00:52:08;;;;;;;3.53;2.20;;;;;;;4.15;87.58;99489.38;4989908;28;102590;-62
2022/12/28 00:54:35;;;;;;;4.93;2.70;;;;;;;4.20;87.73;99482.22;4995351;28;102806;-62
2022/12/28 00:57:05;;;;;;;3.43;2.40;;;;;;;4.39;86.67;99484.13;4997759;28;104444;-62
2022/12/28 00:59:35;;;;;;;4.40;2.50;;;;;;;4.51;86.29;99485.47;4991912;28;103276;-63
2022/12/28 01:02:03;;;;;;;2.50;2.30;;;;;;;4.52;85.86;99479.34;4989624;28;102712;-64
2022/12/28 01:04:31;;;;;;;3.47;2.43;;;;;;;4.47;86.25;99473.38;4993853;28;102975;-65
2022/12/28 01:06:59;;;;;;;2.13;1.90;;;;;;;4.55;85.98;99471.34;4995268;28;102670;-64
2022/12/28 01:09:27;;;;;;;3.37;2.47;;;;;;;4.62;85.29;99467.63;4993267;28;105062;-64
2022/12/28 01:11:55;;;;;;;3.57;2.07;;;;;;;4.73;84.73;99460.22;4993440;28;102719;-64
2022/12/28 01:14:25;;;;;;;5.37;2.33;;;;;;;4.73;85.00;99452.38;4989276;28;103063;-62
2022/12/28 01:16:52;;;;;;;4.90;2.00;;;;;;;4.77;84.71;99448.75;4993681;28;103423;-63
2022/12/28 01:19:22;;;;;;;5.30;3.20;;;;;;;4.66;84.73;99448.25;4995952;28;103259;-62
2022/12/28 01:21:51;;;;;;;7.30;4.27;;;;;;;4.51;85.82;99448.84;4987979;28;102560;-62
2022/12/28 01:24:19;;;;;;;5.40;4.63;;;;;;;4.37;86.07;99443.25;4989361;28;102869;-62
2022/12/28 01:26:47;;;;;;;8.53;4.47;;;;;;;4.32;85.97;99445.19;4996721;28;102967;-62
2022/12/28 01:29:15;;;;;;;6.63;4.70;;;;;;;4.40;86.47;99448.38;4990154;28;103386;-62
2022/12/28 01:31:44;;;;;;;5.83;4.60;;;;;;;4.34;86.23;99443.34;4988077;28;103101;-62
2022/12/28 01:34:12;;;;;;;5.70;4.47;;;;;;;4.24;86.61;99442.81;4996886;28;103351;-62
2022/12/28 01:36:40;;;;;;;7.33;4.50;;;;;;;4.41;86.11;99442.22;4995329;28;103239;-62
2022/12/28 01:39:10;;;;;;;6.33;4.90;;;;;;;4.37;85.95;99433.63;4985558;28;103197;-62
2022/12/28 01:41:40;;;;;;;5.23;4.30;;;;;;;4.34;86.62;99433.75;4983552;28;103515;-62
2022/12/28 01:44:42;;;;;;;6.27;4.10;;;;;;;4.32;86.42;99426.84;4989522;28;102962;-62
2022/12/28 01:47:17;;;;;;;5.90;3.33;;;;;;;4.47;85.88;99429.75;4991115;28;103304;-63
2022/12/28 01:49:58;;;;;;;4.40;2.63;;;;;;;4.49;86.29;99421.88;4990614;28;103202;-62
2022/12/28 01:52:32;;;;;;;3.43;2.33;;;;;;;4.61;85.96;99417.03;4987121;28;102610;-63
2022/12/28 01:55:06;;;;;;;3.70;2.37;;;;;;;4.77;84.59;99416.47;4992390;28;102695;-62
2022/12/28 01:57:39;;;;;;;3.53;2.47;;;;;;;4.79;84.69;99407.66;4989782;28;104488;-62
2022/12/28 02:00:10;;;;;;;3.93;2.40;;;;;;;4.80;84.61;99406.72;4991859;28;103858;-62
2022/12/28 02:02:50;;;;;;;2.53;2.10;;;;;;;4.92;84.35;99408.88;4989906;28;102629;-64
2022/12/28 02:05:24;;;;;;;4.13;3.10;;;;;;;4.87;83.94;99397.72;4989372;28;102896;-64
2022/12/28 02:07:57;;;;;;;5.60;4.70;;;;;;;4.81;84.13;99387.50;4988743;28;103321;-64
2022/12/28 02:10:26;;;;;;;5.23;4.03;;;;;;;4.76;83.82;99389.44;4991250;28;103161;-64
2022/12/28 02:13:13;;;;;;;5.50;4.80;;;;;;;4.70;84.38;99387.03;4984592;28;102859;-64
2022/12/28 02:15:41;;;;;;;4.90;4.20;;;;;;;4.65;84.41;99384.63;4989093;28;102705;-63
2022/12/28 02:18:11;;;;;;;4.83;4.30;;;;;;;4.32;85.35;99379.78;4988054;28;103235;-64
2022/12/28 02:20:52;;;;;;;5.97;4.50;;;;;;;4.17;86.24;99382.94;4992739;28;103236;-64
2022/12/28 02:23:49;;;;;;;6.53;3.90;;;;;;;4.44;86.13;99376.69;4986022;28;102672;-64
2022/12/28 02:26:43;;;;;;;5.20;4.53;;;;;;;4.46;85.33;99374.88;4987360;28;102765;-64
2022/12/28 02:29:29;;;;;;;6.03;4.53;;;;;;;4.22;86.44;99360.06;4981692;28;103215;-64
2022/12/28 02:32:09;;;;;;;4.70;4.20;;;;;;;4.41;86.62;99367.19;4995525;28;103321;-64
2022/12/28 02:34:45;;;;;;;5.97;4.40;;;;;;;4.28;86.45;99365.09;4991187;28;102759;-63
2022/12/28 02:37:19;;;;;;;5.63;4.23;;;;;;;4.51;86.04;99362.47;4995375;28;103115;-64
2022/12/28 02:39:52;;;;;;;5.77;4.17;;;;;;;4.64;85.19;99358.47;4984709;28;103316;-64
2022/12/28 02:42:23;;;;;;;4.30;3.90;;;;;;;4.56;85.19;99350.06;4993454;28;103172;-64
2022/12/28 02:50:48;;;;;;;3.43;2.70;;;;;;;4.89;84.96;99338.28;4959057;28;103745;-64
2022/12/28 02:53:42;;;;;;;4.60;3.07;;;;;;;4.82;85.00;99334.22;4983330;28;103184;-63
2022/12/28 02:56:21;;;;;;;4.53;2.10;;;;;;;4.98;84.88;99322.22;4986255;28;102664;-64
2022/12/28 02:59:14;;;;;;;2.53;2.10;;;;;;;5.15;83.39;99319.78;4991324;28;102918;-62
2022/12/28 03:01:59;;;;;;;1.87;1.77;;;;;;;5.24;82.30;99306.31;4972273;28;104383;-62
2022/12/28 03:04:41;;;;;;;3.47;2.40;;;;;;;5.24;83.46;99297.59;4991501;28;102980;-64
2022/12/28 03:10:12;;;;;;;3.60;2.20;;;;;;;5.30;83.06;99294.72;4998520;28;103844;-62
2022/12/28 03:12:47;;;;;;;2.73;1.80;;;;;;;5.40;82.18;99292.56;4988586;28;103222;-64
2022/12/28 03:15:28;;;;;;;4.70;2.20;;;;;;;5.51;81.72;99285.94;4992917;28;103190;-64
2022/12/28 03:32:08;;;;;;;3.10;2.80;;;;;;;5.46;82.29;99297.53;4992699;28;103379;-64
2022/12/28 03:34:40;;;;;;;2.30;2.10;;;;;;;5.54;82.26;99291.06;4990433;28;102743;-64
2022/12/28 03:37:17;;;;;;;2.43;1.93;;;;;;;5.63;81.83;99287.19;4994295;28;102994;-64
2022/12/28 03:39:51;;;;;;;2.30;1.70;;;;;;;5.66;82.00;99289.69;4991901;28;103092;-64
2022/12/28 03:45:20;;;;;;;3.43;2.67;;;;;;;5.28;83.08;99279.06;4987695;28;104900;-64
2022/12/28 03:48:10;;;;;;;3.13;2.83;;;;;;;5.39;82.68;99275.16;4992714;28;103191;-64
2022/12/28 03:50:42;;;;;;;4.13;3.50;;;;;;;5.15;82.41;99272.63;4989311;28;102625;-64
2022/12/28 03:53:11;;;;;;;5.97;3.60;;;;;;;4.97;83.57;99273.38;4995777;28;103969;-64
2022/12/28 03:55:42;;;;;;;6.57;3.50;;;;;;;5.16;83.33;99263.88;4984712;28;103296;-64
2022/12/28 03:58:10;;;;;;;5.37;3.37;;;;;;;4.88;83.67;99258.06;4992389;28;102621;-64
2022/12/28 04:04:51;;;;;;;2.80;2.47;;;;;;;5.37;82.77;99253.38;4977400;28;102646;-66
2022/12/28 04:07:20;;;;;;;4.10;2.37;;;;;;;5.40;83.29;99245.38;4986284;28;104601;-64
2022/12/28 04:09:49;;;;;;;3.27;2.60;;;;;;;5.41;82.73;99254.97;4992040;28;103391;-64
2022/12/28 04:12:18;;;;;;;3.83;3.10;;;;;;;5.24;82.75;99240.81;4989068;28;102700;-62
2022/12/28 04:15:06;;;;;;;6.37;3.17;;;;;;;5.28;82.85;99240.69;4990589;28;102616;-63
2022/12/28 04:17:34;;;;;;;3.80;3.40;;;;;;;5.35;82.75;99231.63;4989288;28;102751;-62
2022/12/28 04:20:06;;;;;;;4.37;3.33;;;;;;;5.28;82.24;99244.13;4993060;28;103176;-62
2022/12/28 04:22:35;;;;;;;3.60;2.90;;;;;;;5.48;82.56;99243.28;4990266;28;102770;-63
2022/12/28 04:25:06;;;;;;;4.87;3.60;;;;;;;5.49;82.00;99235.38;4994527;28;102715;-64
2022/12/28 04:27:36;;;;;;;3.87;3.27;;;;;;;5.28;82.02;99221.41;4990392;28;103174;-64
2022/12/28 04:30:12;;;;;;;7.37;4.27;;;;;;;5.19;83.02;99234.91;4985803;28;102796;-64
2022/12/28 04:32:41;;;;;;;3.60;3.07;;;;;;;5.23;83.24;99206.81;4990333;28;102666;-64
2022/12/28 04:35:13;;;;;;;4.73;3.37;;;;;;;5.28;82.88;99210.94;4988156;28;102726;-64
2022/12/28 04:37:49;;;;;;;4.37;3.33;;;;;;;5.34;83.18;99209.81;4985260;28;104053;-64
2022/12/28 04:40:17;;;;;;;7.53;3.50;;;;;;;5.32;82.07;99210.81;4990699;28;103197;-64
2022/12/28 04:42:45;;;;;;;4.10;3.70;;;;;;;5.34;82.54;99208.97;4990820;28;102798;-64
2022/12/28 04:45:13;;;;;;;4.03;3.30;;;;;;;5.48;82.30;99210.06;4994342;28;102710;-65
2022/12/28 04:47:48;;;;;;;4.67;3.83;;;;;;;5.36;81.76;99213.22;4990010;28;104080;-65
2022/12/28 04:50:16;;;;;;;4.30;3.67;;;;;;;5.40;82.49;99213.94;4985991;28;103151;-64
2022/12/28 04:52:46;;;;;;;5.07;3.80;;;;;;;5.28;82.78;99210.94;4990022;28;102619;-65
2022/12/28 04:55:16;;;;;;;3.80;3.10;;;;;;;5.40;82.50;99216.56;4981936;28;103030;-65
2022/12/28 04:58:00;;;;;;;2.77;1.73;;;;;;;5.54;82.19;99211.56;4990659;28;103844;-65
2022/12/28 05:00:30;;;;;;;1.80;1.20;;;;;;;5.62;81.88;99212.09;4994167;28;103195;-65
2022/12/28 05:03:01;;;;;;;1.43;1.03;;;;;;;5.85;80.32;99204.09;4985095;28;102575;-65
2022/12/28 05:05:32;;;;;;;2.53;1.20;;;;;;;5.96;79.64;99201.81;4993366;28;102620;-65
2022/12/28 05:08:00;;;;;;;2.77;1.17;;;;;;;5.96;79.52;99190.47;4985248;28;102637;-65
2022/12/28 05:10:32;;;;;;;1.60;1.10;;;;;;;5.96;79.48;99199.19;4995612;28;103409;-65
2022/12/28 05:13:00;;;;;;;3.03;0.83;;;;;;;6.11;79.11;99197.66;4989425;28;102636;-64
2022/12/28 05:15:28;;;;;;;1.60;1.03;;;;;;;6.06;78.76;99194.41;4989114;28;102637;-64
2022/12/28 05:17:56;;;;;;;3.20;0.83;;;;;;;6.17;78.94;99198.22;4988763;28;103208;-64
2022/12/28 05:20:23;;;;;;;1.07;0.90;;;;;;;6.22;78.90;99198.84;4996539;28;103289;-65
2022/12/28 05:22:53;;;;;;;2.60;0.97;;;;;;;6.19;78.37;99191.13;4998958;28;102608;-65
2022/12/28 05:25:21;;;;;;;1.37;0.90;;;;;;;6.28;78.15;99190.69;4995881;28;102905;-65
2022/12/28 05:27:50;;;;;;;2.33;0.93;;;;;;;6.36;77.80;99188.56;4998281;28;103249;-66
2022/12/28 05:30:18;;;;;;;1.00;0.80;;;;;;;6.32;77.96;99197.47;4995078;28;103214;-66
2022/12/28 05:32:46;;;;;;;2.50;0.90;;;;;;;6.40;77.59;99197.97;4988281;28;102735;-66
2022/12/28 05:35:14;;;;;;;2.20;1.00;;;;;;;6.36;77.83;99204.31;4996074;28;102656;-66
2022/12/28 05:37:42;;;;;;;1.33;0.80;;;;;;;6.30;78.47;99195.84;4994965;28;103213;-66
2022/12/28 05:40:10;;;;;;;1.00;0.90;;;;;;;6.40;77.83;99197.97;4993419;28;103231;-66
2022/12/28 05:42:38;;;;;;;1.67;0.80;;;;;;;6.40;77.95;99195.34;4991639;28;103010;-66
2022/12/28 05:45:08;;;;;;;2.47;1.00;;;;;;;6.45;77.30;99191.66;4984317;28;103834;-67
2022/12/28 05:47:36;;;;;;;2.73;0.90;;;;;;;6.46;77.60;99190.75;4993614;28;104004;-66
2022/12/28 05:50:04;;;;;;;2.10;1.33;;;;;;;6.41;77.67;99189.19;4991841;28;103192;-67
2022/12/28 05:52:35;;;;;;;0.73;0.70;;;;;;;6.49;77.30;99193.19;4983033;28;102480;-65
2022/12/28 05:55:06;;;;;;;1.93;1.23;;;;;;;6.54;77.03;99188.59;4964360;28;103569;-66
2022/12/28 05:57:34;;;;;;;1.00;0.87;;;;;;;6.48;77.56;99194.16;4976953;27;103243;-66
2022/12/28 06:00:02;;;;;;;2.17;0.90;;;;;;;6.51;77.45;99180.88;4989126;27;103268;-65
2022/12/28 06:02:39;;;;;;;2.07;0.90;;;;;;;6.60;77.12;99185.66;4979978;28;103018;-67
2022/12/28 06:05:08;;;;;;;2.30;0.93;;;;;;;6.67;76.78;99176.56;4988475;28;102680;-63
2022/12/28 06:07:36;;;;;;;2.90;1.27;;;;;;;6.67;76.92;99179.19;4983012;28;103187;-63
2022/12/28 06:10:05;;;;;;;2.47;1.07;;;;;;;6.62;76.63;99176.81;4983851;28;103175;-63
2022/12/28 06:12:33;;;;;;;1.73;1.40;;;;;;;6.58;77.54;99177.00;4988418;28;102846;-63
2022/12/28 06:15:00;;;;;;;1.70;0.90;;;;;;;6.77;76.26;99169.94;4981352;28;102698;-63
2022/12/28 06:17:28;;;;;;;1.03;0.87;;;;;;;6.80;76.32;99170.63;4983103;28;103342;-63
2022/12/28 06:19:57;;;;;;;1.80;1.10;;;;;;;6.86;75.95;99174.72;4982585;28;104371;-63
2022/12/28 06:22:25;;;;;;;3.07;1.10;;;;;;;6.86;76.22;99177.34;4986171;28;102682;-63
2022/12/28 06:24:53;;;;;;;0.93;0.80;;;;;;;6.84;76.16;99168.72;4983069;28;102920;-64
2022/12/28 06:27:21;;;;;;;1.07;0.80;;;;;;;6.93;76.30;99163.84;4983171;28;103931;-63
2022/12/28 06:29:50;;;;;;;2.57;0.97;;;;;;;6.94;76.93;99160.28;4982457;28;103318;-64
2022/12/28 06:32:17;;;;;;;1.03;0.70;;;;;;;6.98;76.73;99166.25;4982205;28;102538;-63
2022/12/28 06:34:45;;;;;;;1.30;0.80;;;;;;;6.96;76.78;99168.13;4986862;28;105909;-63
2022/12/28 06:37:14;;;;;;;1.07;0.87;;;;;;;6.85;76.92;99170.41;4978776;28;103222;-63
2022/12/28 06:39:42;;;;;;;1.00;0.80;;;;;;;6.89;76.62;99164.06;4969376;28;103252;-63
2022/12/28 06:42:10;;;;;;;2.03;0.80;;;;;;;6.93;76.66;99163.00;4989666;28;102924;-63
2022/12/28 06:44:38;;;;;;;2.40;0.80;;;;;;;6.86;76.94;99157.19;4988290;28;103116;-63
2022/12/28 06:47:12;;;;;;;3.80;1.20;;;;;;;6.81;77.19;99158.34;4983486;28;102995;-63
2022/12/28 06:49:40;;;;;;;1.93;0.80;;;;;;;6.90;76.73;99157.91;4986346;28;103316;-63
2022/12/28 06:52:07;;;;;;;1.03;0.90;;;;;;;6.87;76.97;99158.06;4984581;28;103226;-63
2022/12/28 06:54:37;;;;;;;2.20;1.00;;;;;;;6.85;76.63;99160.75;4984870;28;103887;-63
2022/12/28 06:57:04;;;;;;;3.07;1.07;;;;;;;6.78;76.96;99148.00;4978484;28;103292;-63
2022/12/28 06:59:32;;;;;;;2.70;0.80;;;;;;;6.84;77.25;99155.59;4978794;28;103197;-63
2022/12/28 07:02:00;;;;;;;2.43;1.00;;;;;;;6.76;77.11;99153.34;4979277;27;102793;-61
2022/12/28 07:04:28;;;;;;;2.10;0.93;;;;;;;6.86;77.01;99146.69;4988482;27;102716;-61
2022/12/28 07:06:56;;;;;;;1.13;0.90;;;;;;;6.89;77.18;99140.44;4973269;28;103883;-63
2022/12/28 07:09:24;;;;;;;1.23;1.03;;;;;;;6.87;76.76;99147.56;4982238;28;103284;-60
2022/12/28 07:11:53;;;;;;;3.13;1.17;;;;;;;6.86;76.93;99137.97;4975595;28;103154;-61
2022/12/28 07:14:21;;;;;;;2.03;1.00;;;;;;;6.78;76.87;99135.72;4980020;28;103874;-61
2022/12/28 07:16:49;;;;;;;2.57;1.20;;;;;;;6.72;77.27;99133.41;4982216;28;102885;-61
2022/12/28 07:19:17;;;;;;;2.60;1.40;;;;;;;6.76;77.29;99134.97;4977826;28;103161;-62
2022/12/28 07:21:45;;;;;;;1.47;1.00;;;;;;;6.95;77.02;99133.09;4982035;28;102659;-61
2022/12/28 07:24:13;;;;;;;1.50;0.93;;;;;;;6.91;77.05;99128.06;4993023;27;103874;-61
2022/12/28 07:26:41;;;;;;;2.03;1.03;;;;;;;6.94;77.05;99133.16;4987332;28;104449;-61
2022/12/28 07:29:11;;;;;;;2.53;0.93;;;;;;;6.93;77.04;99126.22;4991653;28;102992;-61
2022/12/28 07:31:40;;;;;;;1.57;0.97;;;;;;;7.01;76.52;99124.06;4993499;28;102522;-61
2022/12/28 07:34:13;;;;;;;2.93;1.10;;;;;;;6.94;76.34;99123.50;4979250;28;102613;-61
2022/12/28 07:36:41;;;;;;;1.63;1.20;;;;;;;6.93;76.78;99116.56;4984554;28;103155;-61
2022/12/28 07:39:09;;;;;;;1.87;1.30;;;;;;;7.09;76.47;99126.28;4982090;28;103348;-62
2022/12/28 07:41:37;;;;;;;2.03;1.13;;;;;;;7.24;75.99;99128.94;4985907;28;103959;-61
2022/12/28 07:44:05;;;;;;;3.47;1.10;;;;;;;7.24;75.40;99130.75;4973116;28;104434;-61
2022/12/28 07:46:36;;;;;;;2.30;1.10;;;;;;;7.17;75.67;99129.38;4984084;28;103334;-61
2022/12/28 07:49:05;;;;;;;2.33;1.30;;;;;;;7.01;76.33;99126.69;4977111;28;103167;-62
2022/12/28 07:51:34;;;;;;;3.10;1.13;;;;;;;7.10;76.10;99123.59;4990000;28;102568;-65
2022/12/28 07:54:04;;;;;;;1.30;1.07;;;;;;;7.13;75.86;99130.47;4993411;28;102586;-65
2022/12/28 07:56:32;;;;;;;1.83;1.00;;;;;;;7.21;75.69;99121.25;4992203;28;103601;-61
2022/12/28 07:59:01;;;;;;;3.13;1.40;;;;;;;7.09;75.83;99124.50;4985975;28;103321;-65
2022/12/28 08:01:33;;;;;;;1.80;1.00;;;;;;;7.27;75.61;99120.91;4987235;28;102643;-64
2022/12/28 08:04:05;;;;;;;3.17;1.30;;;;;;;7.25;75.55;99122.78;4985025;28;104038;-65
2022/12/28 08:06:35;;;;;;;1.90;1.07;;;;;;;7.29;75.42;99116.44;4988750;27;103888;-65
2022/12/28 08:09:05;;;;;;;1.70;1.27;;;;;;;7.19;75.52;99116.97;4992812;27;103193;-65
2022/12/28 08:11:35;;;;;;;3.73;1.63;;;;;;;7.28;75.85;99106.84;4990612;28;103498;-65
2022/12/28 08:14:04;;;;;;;1.60;1.10;;;;;;;7.38;75.09;99102.78;4990414;28;102600;-66
2022/12/28 08:16:37;;;;;;;2.20;1.10;;;;;;;7.43;75.82;99092.91;4988746;28;103198;-61
2022/12/28 08:19:08;;;;;;;1.53;1.17;;;;;;;7.39;75.28;99103.66;4979339;28;103196;-63
2022/12/28 08:21:37;;;;;;;4.37;1.37;;;;;;;7.45;75.02;99095.44;4992010;28;103359;-72
2022/12/28 08:24:06;;;;;;;1.10;0.93;;;;;;;7.47;75.11;99091.81;4983426;28;102715;-66
2022/12/28 08:26:37;;;;;;;1.93;1.10;;;;;;;7.61;74.88;99087.59;4986085;28;103213;-67
2022/12/28 08:29:08;;;;;;;1.47;1.20;;;;;;;7.59;74.68;99091.16;4995981;27;103236;-62
2022/12/28 08:31:38;;;;;;;1.03;0.93;;;;;;;7.55;74.57;99086.97;4987970;28;102868;-65
2022/12/28 08:34:14;;;;;;;3.03;1.73;;;;;;;7.65;74.20;99081.22;4981614;28;102724;-66
2022/12/28 08:36:41;;;;;;;1.40;0.83;;;;;;;7.60;73.99;99081.50;4984819;28;103825;-65
2022/12/28 08:39:10;;;;;;;2.03;0.90;;;;;;;7.71;74.32;99076.50;4986908;28;103269;-61
2022/12/28 08:41:37;;;;;;;2.10;0.97;;;;;;;7.73;74.38;99081.66;4984852;28;103127;-65
2022/12/28 08:44:06;;;;;;;3.10;1.20;;;;;;;7.62;74.25;99079.63;4983477;28;102758;-67
2022/12/28 08:46:39;;;;;;;3.37;1.30;;;;;;;7.74;73.47;99083.38;4989841;28;103134;-66
2022/12/28 08:49:07;;;;;;;2.07;1.20;;;;;;;7.82;73.62;99081.16;4988089;27;103020;-66
2022/12/28 08:51:41;;;;;;;1.17;1.00;;;;;;;7.92;73.45;99077.06;4996026;27;102972;-66
2022/12/28 08:54:10;;;;;;;1.10;0.90;;;;;;;7.97;72.91;99070.63;4983333;28;102763;-66
2022/12/28 08:56:40;;;;;;;3.13;1.10;;;;;;;7.78;73.40;99075.22;4980446;28;104565;-66
2022/12/28 08:59:08;;;;;;;1.37;1.13;;;;;;;7.96;73.52;99075.97;4979166;28;103980;-67
2022/12/28 09:01:39;;;;;;;0.93;0.90;;;;;;;7.95;73.38;99071.63;4984674;28;102704;-67
2022/12/28 09:04:14;;;;;;;1.73;0.90;;;;;;;8.04;72.84;99068.50;4983928;28;103508;-67
2022/12/28 09:06:43;;;;;;;2.17;1.10;;;;;;;8.13;72.48;99070.63;4977842;28;103024;-67
2022/12/28 09:09:13;;;;;;;1.47;1.03;;;;;;;8.09;72.17;99061.19;4983333;28;103189;-66
2022/12/28 09:11:41;;;;;;;1.60;1.10;;;;;;;8.14;72.20;99064.41;4971650;28;102926;-67
2022/12/28 09:14:11;;;;;;;1.93;0.93;;;;;;;8.15;72.18;99069.59;4980563;28;103027;-67
2022/12/28 09:16:50;;;;;;;3.83;1.20;;;;;;;8.22;72.09;99077.16;4980029;28;103223;-67
2022/12/28 09:19:18;;;;;;;2.17;1.03;;;;;;;8.35;71.42;99065.00;4976178;28;103215;-67
2022/12/28 09:21:47;;;;;;;1.43;0.80;;;;;;;8.34;71.22;99079.94;4978488;28;102748;-66
2022/12/28 09:24:16;;;;;;;2.77;1.10;;;;;;;8.46;70.58;99070.50;4975735;28;103081;-67
2022/12/28 09:26:44;;;;;;;1.30;0.93;;;;;;;8.48;70.88;99066.00;4984175;28;104434;-67
2022/12/28 09:29:13;;;;;;;2.83;0.90;;;;;;;8.50;71.11;99062.34;4977421;28;103269;-67
2022/12/28 09:31:43;;;;;;;3.53;1.20;;;;;;;8.64;70.42;99070.31;4984336;28;102743;-67
2022/12/28 09:34:12;;;;;;;1.33;1.03;;;;;;;8.94;70.20;99064.13;4975066;28;103140;-67
2022/12/28 09:37:02;;;;;;;1.33;1.07;;;;;;;8.90;69.74;99062.63;4976163;28;103335;-67
2022/12/28 09:39:30;;;;;;;1.10;0.80;;;;;;;8.88;69.72;99059.22;4975480;28;103144;-67
2022/12/28 09:42:02;;;;;;;1.23;1.13;;;;;;;8.96;69.33;99046.44;4977134;28;103034;-67
2022/12/28 09:44:36;;;;;;;2.10;1.20;;;;;;;9.25;68.26;99049.00;4980457;28;102728;-67
2022/12/28 09:47:16;;;;;;;3.03;1.20;;;;;;;9.41;68.71;99051.53;4978451;28;103186;-67
2022/12/28 09:49:53;;;;;;;1.27;1.13;;;;;;;9.30;67.74;99046.09;4982629;28;103199;-67
2022/12/28 09:52:30;;;;;;;2.57;1.10;;;;;;;9.29;68.06;99045.22;4982887;28;102666;-67
2022/12/28 09:55:07;;;;;;;1.50;1.20;;;;;;;9.14;68.35;99040.91;4974162;28;102719;-67
2022/12/28 09:57:39;;;;;;;1.73;1.10;;;;;;;9.38;68.21;99048.22;4977821;28;104573;-67
2022/12/28 10:00:16;;;;;;;3.00;1.40;;;;;;;9.40;68.74;99044.59;4981344;28;102948;-66
2022/12/28 10:02:46;;;;;;;2.87;1.53;;;;;;;9.54;68.29;99038.44;4979074;28;102680;-67
2022/12/28 10:05:15;;;;;;;1.83;1.20;;;;;;;9.46;68.26;99040.72;4984186;28;103962;-67
2022/12/28 10:07:45;;;;;;;4.53;0.90;;;;;;;9.43;68.21;99036.47;4979638;28;103215;-67
2022/12/28 10:10:17;;;;;;;3.50;1.17;;;;;;;9.49;67.58;99036.09;4977382;28;103175;-67
2022/12/28 10:12:45;;;;;;;1.40;1.00;;;;;;;9.52;67.17;99037.69;4984377;28;102647;-67
2022/12/28 10:15:14;;;;;;;1.47;1.23;;;;;;;9.73;67.47;99020.50;4976309;28;103997;-67
2022/12/28 10:17:43;;;;;;;1.43;0.80;;;;;;;9.96;67.10;99026.97;4973586;27;104685;-67
2022/12/28 10:20:16;;;;;;;2.67;1.20;;;;;;;9.85;68.19;99027.66;4979624;28;103183;-66
2022/12/28 10:22:50;;;;;;;1.43;0.97;;;;;;;10.02;66.94;99027.38;4984961;28;102621;-67
2022/12/28 10:25:22;;;;;;;2.20;0.80;;;;;;;9.90;67.13;99015.84;4982092;28;102658;-67
2022/12/28 10:27:50;;;;;;;1.30;0.93;;;;;;;9.89;66.75;99014.16;4984222;28;103234;-67
2022/12/28 10:30:22;;;;;;;1.53;0.93;;;;;;;9.99;66.90;99003.00;4981205;28;103166;-67
2022/12/28 10:32:53;;;;;;;1.87;0.90;;;;;;;10.14;67.09;99007.28;4973706;28;102884;-67
2022/12/28 10:35:33;;;;;;;2.87;1.10;;;;;;;10.05;66.98;98998.16;4980121;28;103126;-67
2022/12/28 10:38:06;;;;;;;0.97;0.70;;;;;;;10.21;66.14;98992.75;4975098;28;103222;-67
2022/12/28 10:40:38;;;;;;;1.00;0.83;;;;;;;10.21;66.04;98987.47;4973618;28;103217;-67
2022/12/28 10:43:19;;;;;;;2.43;0.90;;;;;;;10.08;66.29;98986.53;4968589;28;102740;-67
2022/12/28 10:45:49;;;;;;;1.00;0.70;;;;;;;10.18;66.24;98983.25;4978049;28;102715;-67
2022/12/28 10:48:19;;;;;;;2.50;1.00;;;;;;;10.20;66.33;98976.06;4985915;28;103340;-67
2022/12/28 10:50:51;;;;;;;1.40;0.90;;;;;;;10.19;65.48;98984.09;4983665;28;103207;-67
2022/12/28 10:53:25;;;;;;;2.27;0.90;;;;;;;10.27;65.39;98976.50;4984038;28;102747;-67
2022/12/28 10:56:06;;;;;;;1.83;0.80;;;;;;;10.29;65.35;98969.31;4993749;28;103490;-67
2022/12/28 10:58:34;;;;;;;1.23;0.70;;;;;;;10.51;64.67;98966.94;4985759;28;104021;-67
2022/12/28 11:01:18;;;;;;;2.73;0.83;;;;;;;10.60;64.61;98963.66;4982434;28;102861;-67
2022/12/28 11:03:59;;;;;;;1.10;0.80;;;;;;;10.32;64.54;98958.56;4986708;28;102680;-67
2022/12/28 11:06:28;;;;;;;2.50;0.80;;;;;;;10.39;64.57;98959.81;4984530;28;102685;-67
2022/12/28 11:09:13;;;;;;;1.27;0.80;;;;;;;10.70;63.60;98948.88;4984363;28;103096;-67
2022/12/28 11:11:42;;;;;;;2.20;0.80;;;;;;;10.66;63.22;98942.13;4964695;28;103272;-67
2022/12/28 11:14:17;;;;;;;1.53;0.70;;;;;;;11.28;61.65;98939.50;4985166;28;103254;-67
2022/12/28 11:16:45;;;;;;;2.23;0.80;;;;;;;11.54;61.04;98935.81;4987319;28;102801;-67
2022/12/28 11:19:13;;;;;;;1.77;0.70;;;;;;;11.30;60.66;98927.00;4981114;28;103187;-67
2022/12/28 11:21:43;;;;;;;0.80;0.80;;;;;;;11.13;60.57;98924.72;4980959;28;103172;-67
2022/12/28 11:24:15;;;;;;;4.97;0.90;;;;;;;10.94;61.52;98919.91;4984950;28;102692;-67
2022/12/28 11:26:44;;;;;;;0.87;0.87;;;;;;;11.00;61.61;98922.13;4991903;28;102610;-67
2022/12/28 11:29:14;;;;;;;2.07;0.80;;;;;;;10.52;62.65;98921.09;4988875;28;103317;-67
2022/12/28 11:31:46;;;;;;;2.50;0.90;;;;;;;10.46;63.28;98918.84;4990239;28;103224;-67
2022/12/28 11:34:18;;;;;;;1.63;0.70;;;;;;;10.37;63.85;98917.69;4991607;28;103313;-66
2022/12/28 11:36:49;;;;;;;1.20;0.67;;;;;;;10.31;63.60;98909.31;4995918;28;102821;-67
2022/12/28 11:39:46;;;;;;;2.07;0.87;;;;;;;10.42;63.74;98909.44;4989089;28;103035;-67
2022/12/28 11:43:02;;;;;;;1.77;1.03;;;;;;;10.38;63.64;98889.50;4989288;28;103527;-67
2022/12/28 11:45:51;;;;;;;1.70;1.07;;;;;;;10.53;63.07;98896.34;4979885;28;103541;-67
2022/12/28 11:48:38;;;;;;;1.27;0.77;;;;;;;10.63;62.77;98889.47;4989923;28;102644;-67
2022/12/28 11:51:15;;;;;;;2.43;1.00;;;;;;;10.57;63.25;98889.91;4986151;28;104501;-67
2022/12/28 11:53:56;;;;;;;2.63;1.00;;;;;;;10.71;62.79;98881.88;4989779;28;103247;-67
2022/12/28 11:56:27;;;;;;;1.47;1.00;;;;;;;10.58;62.90;98886.31;4991545;28;103028;-67
2022/12/28 11:59:20;;;;;;;2.13;0.73;;;;;;;10.79;62.97;98879.53;4989374;28;103049;-67
2022/12/28 12:01:50;;;;;;;1.83;0.90;;;;;;;10.84;62.15;98887.97;4991044;28;103979;-68
2022/12/28 12:04:41;;;;;;;0.90;0.60;;;;;;;10.95;62.00;98872.19;4987414;28;103165;-68
2022/12/28 12:07:46;;;;;;;1.33;0.60;;;;;;;11.43;60.86;98865.19;4993453;28;102699;-67
2022/12/28 12:10:35;;;;;;;0.70;0.70;;;;;;;11.31;60.94;98854.66;4988619;28;104439;-68
2022/12/28 12:13:43;;;;;;;2.03;0.83;;;;;;;10.87;61.11;98853.41;4989347;28;103194;-67
2022/12/28 12:16:28;;;;;;;1.97;0.77;;;;;;;11.13;61.27;98850.69;4982631;28;103269;-68
2022/12/28 12:19:00;;;;;;;1.03;0.70;;;;;;;10.84;61.91;98843.03;4991308;28;102955;-67
2022/12/28 12:21:35;;;;;;;4.57;1.13;;;;;;;10.82;62.20;98842.31;4991641;28;104115;-68
2022/12/28 12:24:17;;;;;;;1.07;0.77;;;;;;;10.86;62.46;98843.75;4982652;28;103128;-68